Time;durP1;ratioP1;P1;durP2;ratioP2;P2;SDS_P1;SDS_P2;PMS_P1;PMS_P2;Temp;Humidity;BMP_temperature;BMP_pressure;BME280_temperature;BME280_humidity;BME280_pressure;Samples;Min_cycle;Max_cycle;Signal;HPM_P1;HPM_P2
2023/11/24 00:02:04;;;;;;;3.10;0.80;;;;;;;5.47;90.46;97934.09;107406;281;97920;-53
2023/11/24 00:04:44;;;;;;;4.40;1.20;;;;;;;5.45;90.51;97939.39;107217;281;155387;-53
2023/11/24 00:07:32;;;;;;;3.20;0.90;;;;;;;5.48;90.49;97932.77;107382;281;104853;-54
2023/11/24 00:10:11;;;;;;;6.00;1.40;;;;;;;5.49;90.45;97931.53;107162;281;154839;-54
2023/11/24 00:12:47;;;;;;;3.60;1.00;;;;;;;5.53;90.36;97923.80;107294;281;96785;-58
2023/11/24 00:15:30;;;;;;;3.20;0.80;;;;;;;5.52;90.18;97928.16;107257;281;154383;-58
2023/11/24 00:18:12;;;;;;;4.50;1.40;;;;;;;5.47;90.17;97940.84;107370;280;119652;-54
2023/11/24 00:20:52;;;;;;;4.60;1.30;;;;;;;5.40;90.02;97949.06;107444;280;105747;-54
2023/11/24 00:23:30;;;;;;;4.80;1.00;;;;;;;5.31;89.81;97947.59;107103;280;153594;-56
2023/11/24 00:26:06;;;;;;;5.10;1.20;;;;;;;5.29;90.13;97947.73;107372;281;96337;-57
2023/11/24 00:28:46;;;;;;;3.20;1.00;;;;;;;5.33;90.08;97942.46;107293;281;154710;-56
2023/11/24 00:31:24;;;;;;;2.70;0.90;;;;;;;5.37;90.11;97949.69;107404;280;119355;-57
2023/11/24 00:34:08;;;;;;;3.50;1.80;;;;;;;5.43;90.15;97945.95;107308;280;155247;-59
2023/11/24 00:36:49;;;;;;;4.00;1.10;;;;;;;5.45;90.06;97942.31;107317;281;114351;-56
2023/11/24 00:39:31;;;;;;;4.70;1.30;;;;;;;5.43;89.84;97930.74;107193;281;153978;-52
2023/11/24 00:42:09;;;;;;;4.60;1.00;;;;;;;5.39;89.88;97929.38;107407;280;97900;-59
2023/11/24 00:44:43;;;;;;;4.10;1.00;;;;;;;5.37;89.75;97937.09;107448;280;120053;-58
2023/11/24 00:47:26;;;;;;;4.80;1.30;;;;;;;5.35;89.71;97938.39;107160;280;154147;-54
2023/11/24 00:50:06;;;;;;;5.10;1.20;;;;;;;5.33;89.61;97938.23;107376;281;113885;-53
2023/11/24 00:52:43;;;;;;;5.20;1.50;;;;;;;5.25;89.48;97944.75;107237;281;155236;-55
2023/11/24 00:55:20;;;;;;;4.50;1.20;;;;;;;5.16;89.27;97939.95;107366;281;96643;-55
2023/11/24 00:58:04;;;;;;;7.30;2.20;;;;;;;5.05;89.36;97940.41;107235;281;153405;-56
2023/11/24 01:00:44;;;;;;;4.90;1.40;;;;;;;4.94;89.44;97946.40;107370;281;102710;-55
2023/11/24 01:03:27;;;;;;;6.10;1.50;;;;;;;4.86;89.33;97944.77;107260;281;118050;-60
2023/11/24 01:06:03;;;;;;;5.90;1.60;;;;;;;4.77;89.43;97939.64;107269;281;97121;-58
2023/11/24 01:08:51;;;;;;;7.30;1.60;;;;;;;4.73;89.35;97937.94;107365;281;96863;-59
2023/11/24 01:11:28;;;;;;;5.10;1.60;;;;;;;4.69;89.27;97942.61;107153;281;154702;-57
2023/11/24 01:14:07;;;;;;;6.20;1.60;;;;;;;4.66;89.37;97942.65;107349;281;104661;-54
2023/11/24 01:16:56;;;;;;;4.40;1.40;;;;;;;4.60;89.46;97942.44;107167;281;153646;-53
2023/11/24 01:19:34;;;;;;;7.00;1.60;;;;;;;4.55;89.51;97948.02;107363;281;95821;-55
2023/11/24 01:22:07;;;;;;;;;;;;;;;4.53;89.51;97937.23;107251;280;154399;-57
2023/11/24 01:24:47;;;;;;;5.50;1.20;;;;;;;4.55;89.70;97942.86;107423;280;118393;-58
2023/11/24 01:27:31;;;;;;;7.30;3.10;;;;;;;4.61;89.73;97951.40;107461;280;105423;-60
2023/11/24 01:30:10;;;;;;;4.80;1.50;;;;;;;4.67;89.86;97968.16;107155;281;116503;-59
2023/11/24 01:32:49;;;;;;;4.00;1.40;;;;;;;4.75;89.98;97991.22;107353;281;97373;-58
2023/11/24 01:35:30;;;;;;;1.20;0.60;;;;;;;4.69;89.90;97992.30;107137;281;154234;-58
2023/11/24 01:38:16;;;;;;;2.30;0.60;;;;;;;4.37;89.66;97999.12;107899;281;120191;-59
2023/11/24 01:40:54;;;;;;;1.10;0.50;;;;;;;4.10;89.38;98021.15;107393;281;154086;-58
2023/11/24 01:43:32;;;;;;;2.50;1.10;;;;;;;3.93;89.57;98005.95;107799;281;114025;-59
2023/11/24 01:46:20;;;;;;;2.70;1.10;;;;;;;3.80;89.45;97995.69;108130;281;153730;-55
2023/11/24 01:48:57;;;;;;;1.70;0.50;;;;;;;3.74;89.34;97980.36;108449;281;95511;-59
2023/11/24 01:51:34;;;;;;;2.50;0.60;;;;;;;3.59;89.24;97979.95;107297;281;153218;-59
2023/11/24 01:54:12;;;;;;;2.50;0.80;;;;;;;3.51;89.48;97983.20;107373;281;104039;-59
2023/11/24 01:56:48;;;;;;;2.20;0.50;;;;;;;3.55;89.54;97977.23;107257;281;115481;-58
2023/11/24 01:59:37;;;;;;;1.60;0.70;;;;;;;3.56;89.60;97971.94;107174;281;154271;-59
2023/11/24 02:02:20;;;;;;;2.40;0.80;;;;;;;3.62;89.67;97962.54;107388;281;98333;-53
2023/11/24 02:05:03;;;;;;;3.40;1.00;;;;;;;3.65;89.80;97955.67;107176;281;153890;-52
2023/11/24 02:07:40;;;;;;;;;;;;;;;3.70;90.16;97958.63;107405;281;105014;-58
2023/11/24 02:10:20;;;;;;;3.20;1.30;;;;;;;3.73;90.26;97955.52;107214;281;140169;-56
2023/11/24 02:13:02;;;;;;;5.00;1.10;;;;;;;3.73;90.32;97953.20;107411;280;94667;-53
2023/11/24 02:15:41;;;;;;;5.30;1.10;;;;;;;3.69;90.18;97961.54;107257;280;154878;-52
2023/11/24 02:18:27;;;;;;;4.00;1.40;;;;;;;3.63;90.16;97962.91;107327;281;119529;-58
2023/11/24 02:21:04;;;;;;;3.80;1.10;;;;;;;3.62;90.25;97967.74;107375;281;104202;-58
2023/11/24 02:23:47;;;;;;;4.90;1.00;;;;;;;3.66;90.28;97969.59;107243;280;154990;-55
2023/11/24 02:26:25;;;;;;;2.70;1.00;;;;;;;3.76;90.59;97972.14;107384;280;93692;-54
2023/11/24 02:29:02;;;;;;;3.30;0.80;;;;;;;3.84;90.54;97968.66;107193;280;154253;-59
2023/11/24 02:31:40;;;;;;;4.70;1.00;;;;;;;3.78;90.58;97967.77;107330;281;119610;-59
2023/11/24 02:34:15;;;;;;;3.60;1.10;;;;;;;3.73;90.43;97963.15;107250;280;155119;-59
2023/11/24 02:36:53;;;;;;;4.50;1.10;;;;;;;3.68;90.47;97963.64;107392;280;112957;-57
2023/11/24 02:39:34;;;;;;;5.60;1.20;;;;;;;3.61;90.48;97963.27;107244;280;154660;-58
2023/11/24 02:42:16;;;;;;;5.20;1.60;;;;;;;3.58;90.49;97969.35;107251;282;98608;-58
2023/11/24 02:44:59;;;;;;;5.10;1.20;;;;;;;3.57;90.66;97960.95;107356;281;119251;-57
2023/11/24 02:47:42;;;;;;;3.50;1.20;;;;;;;3.59;90.61;97959.21;107265;281;154292;-53
2023/11/24 02:50:26;;;;;;;4.40;1.30;;;;;;;3.54;90.53;97956.70;107350;282;114486;-56
2023/11/24 02:53:08;;;;;;;4.80;1.50;;;;;;;3.47;90.51;97964.53;107195;282;154302;-58
2023/11/24 02:55:45;;;;;;;5.00;1.20;;;;;;;3.40;90.54;97957.96;107326;282;98297;-58
2023/11/24 02:58:22;;;;;;;5.00;1.40;;;;;;;3.36;90.42;97953.92;107268;280;153882;-58
2023/11/24 03:00:58;;;;;;;3.90;1.20;;;;;;;3.32;90.41;97951.62;107402;280;105894;-59
2023/11/24 03:03:33;;;;;;;4.40;1.30;;;;;;;3.28;90.56;97949.36;107170;280;154532;-53
2023/11/24 03:06:09;;;;;;;4.60;1.30;;;;;;;3.25;90.58;97948.23;107235;282;95651;-54
2023/11/24 03:08:48;;;;;;;3.60;1.30;;;;;;;3.23;90.55;97944.13;107325;282;97506;-60
2023/11/24 03:11:30;;;;;;;7.10;1.30;;;;;;;3.21;90.57;97934.98;107184;281;154339;-58
2023/11/24 03:14:13;;;;;;;5.80;1.80;;;;;;;3.20;90.73;97934.61;107341;281;105943;-60
2023/11/24 03:16:58;;;;;;;5.20;1.60;;;;;;;3.19;90.73;97935.63;107196;282;154054;-54
2023/11/24 03:19:37;;;;;;;6.20;1.50;;;;;;;3.19;91.13;97926.19;107361;282;94641;-54
2023/11/24 03:22:23;;;;;;;5.30;2.30;;;;;;;3.18;90.90;97934.28;107210;281;156801;-58
2023/11/24 03:25:07;;;;;;;3.50;1.30;;;;;;;3.21;91.22;97929.11;107319;281;118623;-58
2023/11/24 03:27:49;;;;;;;5.00;1.30;;;;;;;3.26;91.35;97924.52;107270;281;155750;-56
2023/11/24 03:30:23;;;;;;;10.10;1.60;;;;;;;3.36;91.38;97922.96;107394;281;115154;-56
2023/11/24 03:32:57;;;;;;;5.10;1.40;;;;;;;3.42;91.42;97919.98;107393;281;95761;-58
2023/11/24 03:35:32;;;;;;;8.10;1.50;;;;;;;3.49;91.56;97921.01;107273;281;153903;-58
2023/11/24 03:38:11;;;;;;;;;;;;;;;3.55;91.49;97918.95;107406;281;119566;-57
2023/11/24 03:41:03;;;;;;;9.90;1.50;;;;;;;3.63;91.51;97918.91;107247;281;140486;-55
2023/11/24 03:43:47;;;;;;;5.70;1.50;;;;;;;3.70;91.53;97920.88;107365;281;115187;-58
2023/11/24 03:46:32;;;;;;;5.30;1.70;;;;;;;3.79;91.59;97926.10;107254;278;155410;-56
2023/11/24 03:49:22;;;;;;;5.20;1.70;;;;;;;3.85;91.37;97924.08;107351;281;95747;-54
2023/11/24 03:52:04;;;;;;;8.20;1.60;;;;;;;3.90;91.23;97934.55;107214;281;154302;-52
2023/11/24 03:54:44;;;;;;;6.00;1.60;;;;;;;3.94;91.12;97932.90;107384;281;105907;-53
2023/11/24 03:57:28;;;;;;;6.50;1.80;;;;;;;3.98;90.98;97933.70;107342;281;113818;-58
2023/11/24 04:00:08;;;;;;;6.70;2.00;;;;;;;3.95;90.97;97934.84;107232;281;94383;-58
2023/11/24 04:02:51;;;;;;;6.80;1.40;;;;;;;3.97;90.76;97933.19;107359;281;97233;-54
2023/11/24 04:05:33;;;;;;;7.40;1.70;;;;;;;3.95;90.68;97932.16;107146;281;153329;-54
2023/11/24 04:08:08;;;;;;;8.30;2.00;;;;;;;3.97;90.74;97926.67;107329;281;104242;-53
2023/11/24 04:10:51;;;;;;;7.20;1.80;;;;;;;3.99;90.68;97927.67;107182;281;155142;-53
2023/11/24 04:13:31;;;;;;;6.70;1.50;;;;;;;3.99;90.59;97914.35;107314;281;94847;-58
2023/11/24 04:16:09;;;;;;;7.70;1.60;;;;;;;3.99;90.51;97924.76;107227;281;155086;-58
2023/11/24 04:18:50;;;;;;;5.30;1.40;;;;;;;3.95;90.37;97916.20;107363;281;117633;-53
2023/11/24 04:21:34;;;;;;;7.90;1.80;;;;;;;3.87;90.09;97913.35;107362;281;105038;-54
2023/11/24 04:24:10;;;;;;;7.10;1.60;;;;;;;3.73;89.84;97910.07;107233;281;113585;-58
2023/11/24 04:26:45;;;;;;;6.80;1.90;;;;;;;3.60;89.78;97906.02;107380;281;93908;-57
2023/11/24 04:29:26;;;;;;;8.80;1.50;;;;;;;3.47;89.85;97900.69;107204;281;157395;-53
2023/11/24 04:32:07;;;;;;;7.40;1.40;;;;;;;3.40;89.72;97895.96;107364;281;119246;-57
2023/11/24 04:34:51;;;;;;;7.90;1.70;;;;;;;3.31;89.62;97896.05;107176;281;155369;-58
2023/11/24 04:37:31;;;;;;;4.10;1.30;;;;;;;3.23;89.68;97902.72;107321;281;113758;-53
2023/11/24 04:40:09;;;;;;;8.40;2.20;;;;;;;3.19;89.75;97898.08;107205;281;154518;-53
2023/11/24 04:42:51;;;;;;;4.60;1.20;;;;;;;3.21;89.72;97903.34;107408;281;97613;-55
2023/11/24 04:45:30;;;;;;;5.00;1.40;;;;;;;3.25;89.73;97899.04;107339;281;119140;-56
2023/11/24 04:48:09;;;;;;;5.30;1.30;;;;;;;3.30;89.65;97901.14;107268;281;106039;-58
2023/11/24 04:50:44;;;;;;;6.80;1.30;;;;;;;3.29;89.56;97899.86;107350;281;114004;-58
2023/11/24 04:53:25;;;;;;;6.60;1.40;;;;;;;3.26;89.44;97902.44;107181;281;153373;-53
2023/11/24 04:56:05;;;;;;;5.90;1.50;;;;;;;3.20;89.29;97911.26;107412;281;97643;-53
2023/11/24 04:58:45;;;;;;;6.50;1.70;;;;;;;3.17;89.07;97911.05;107288;280;153828;-55
2023/11/24 05:01:20;;;;;;;5.70;1.40;;;;;;;3.17;89.18;97916.27;107422;280;105559;-56
2023/11/24 05:04:00;;;;;;;4.10;1.20;;;;;;;3.24;89.24;97922.52;107327;280;154451;-54
2023/11/24 05:06:49;;;;;;;5.80;1.40;;;;;;;3.31;89.19;97921.49;107332;281;92784;-54
2023/11/24 05:09:38;;;;;;;5.40;1.20;;;;;;;3.34;89.01;97916.86;107356;281;97785;-53
2023/11/24 05:12:23;;;;;;;5.70;1.40;;;;;;;3.38;88.99;97919.98;107303;281;120384;-53
2023/11/24 05:15:03;;;;;;;5.20;1.50;;;;;;;3.42;88.84;97924.98;107394;281;104763;-52
2023/11/24 05:17:48;;;;;;;4.50;1.20;;;;;;;3.45;88.67;97923.55;107137;281;154602;-53
2023/11/24 05:20:26;;;;;;;5.80;1.00;;;;;;;3.47;88.58;97927.85;107364;281;95792;-53
2023/11/24 05:23:07;;;;;;;6.30;1.50;;;;;;;3.51;88.60;97929.60;107199;281;153865;-56
2023/11/24 05:25:47;;;;;;;4.60;1.20;;;;;;;3.56;88.56;97937.48;107327;281;118026;-56
2023/11/24 05:28:33;;;;;;;6.20;1.50;;;;;;;3.58;88.37;97942.95;107190;281;153464;-56
2023/11/24 05:31:08;;;;;;;7.50;1.40;;;;;;;3.59;88.29;97945.16;107345;281;115720;-56
2023/11/24 05:33:51;;;;;;;5.20;1.40;;;;;;;3.61;88.20;97945.95;107243;281;154238;-54
2023/11/24 05:36:33;;;;;;;8.40;1.30;;;;;;;3.62;88.19;97939.00;107355;281;96924;-54
2023/11/24 05:39:23;;;;;;;3.40;1.30;;;;;;;3.65;88.13;97940.73;107398;281;118838;-58
2023/11/24 05:41:59;;;;;;;6.50;1.30;;;;;;;3.69;87.97;97944.46;107276;281;154257;-55
2023/11/24 05:44:41;;;;;;;4.10;1.70;;;;;;;3.74;87.87;97943.30;107377;281;114289;-55
2023/11/24 05:47:20;;;;;;;6.20;1.80;;;;;;;3.75;87.93;97949.02;107124;282;153202;-56
2023/11/24 05:50:01;;;;;;;6.00;1.90;;;;;;;3.73;87.83;97962.40;107378;281;97866;-55
2023/11/24 05:52:38;;;;;;;5.70;1.60;;;;;;;3.70;87.75;97965.37;107190;281;154842;-55
2023/11/24 05:55:19;;;;;;;5.10;1.70;;;;;;;3.64;87.67;97960.44;107342;281;103432;-54
2023/11/24 05:57:59;;;;;;;6.20;1.80;;;;;;;3.56;87.72;97959.94;107277;280;154537;-54
2023/11/24 06:00:38;;;;;;;6.30;1.80;;;;;;;3.51;87.71;97965.11;107439;280;93097;-54
2023/11/24 06:03:21;;;;;;;6.40;1.90;;;;;;;3.48;87.70;97972.58;107491;280;98046;-53
2023/11/24 06:06:01;;;;;;;7.80;1.60;;;;;;;3.40;87.64;97970.47;107142;280;152953;-53
2023/11/24 06:08:40;;;;;;;8.30;1.70;;;;;;;3.32;87.59;97967.87;107372;281;106294;-56
2023/11/24 06:11:18;;;;;;;7.40;2.10;;;;;;;3.25;87.63;97977.83;107227;280;153531;-55
2023/11/24 06:13:54;;;;;;;8.70;1.60;;;;;;;3.18;87.61;97978.48;107489;280;95696;-54
2023/11/24 06:16:36;;;;;;;6.80;1.60;;;;;;;3.11;87.59;97981.50;107292;280;154026;-53
2023/11/24 06:19:15;;;;;;;5.40;1.40;;;;;;;3.08;87.72;97984.15;107363;281;119728;-53
2023/11/24 06:21:55;;;;;;;10.90;2.10;;;;;;;3.07;87.71;97984.89;107225;281;153798;-53
2023/11/24 06:24:34;;;;;;;7.60;1.60;;;;;;;3.05;87.66;97992.55;107353;280;114873;-53
2023/11/24 06:27:18;;;;;;;10.30;2.60;;;;;;;2.98;87.69;97991.14;107363;280;95707;-55
2023/11/24 06:30:06;;;;;;;6.20;1.70;;;;;;;2.90;87.68;97999.65;107117;281;153890;-56
2023/11/24 06:32:45;;;;;;;7.30;1.50;;;;;;;2.87;87.68;98000.65;107334;281;118586;-58
2023/11/24 06:35:23;;;;;;;8.10;1.70;;;;;;;2.87;87.66;97999.55;107284;280;154027;-56
2023/11/24 06:38:06;;;;;;;5.90;1.30;;;;;;;2.91;87.73;98011.95;107331;280;114174;-50
2023/11/24 06:40:43;;;;;;;6.60;1.50;;;;;;;3.01;87.78;98011.41;106600;281;154307;-51
2023/11/24 06:43:28;;;;;;;4.70;1.80;;;;;;;3.10;87.76;98012.02;107396;282;98416;-52
2023/11/24 06:46:06;;;;;;;7.40;1.80;;;;;;;3.16;87.65;98007.85;107195;282;154064;-52
2023/11/24 06:48:43;;;;;;;12.20;2.50;;;;;;;3.21;87.70;98013.73;107351;282;104166;-55
2023/11/24 06:51:29;;;;;;;9.20;1.90;;;;;;;3.27;87.76;98015.68;107340;282;114213;-55
2023/11/24 06:54:06;;;;;;;6.80;2.40;;;;;;;3.32;87.67;98016.02;107264;282;93313;-53
2023/11/24 06:56:43;;;;;;;9.70;2.40;;;;;;;3.30;87.50;98017.09;107392;282;97817;-53
2023/11/24 06:59:19;;;;;;;7.80;1.50;;;;;;;3.34;87.55;98016.13;107180;281;153426;-57
2023/11/24 07:01:54;;;;;;;7.30;2.10;;;;;;;3.41;87.50;98013.53;107382;281;105411;-53
2023/11/24 07:04:34;;;;;;;9.40;1.70;;;;;;;3.46;87.47;98013.55;107233;281;154202;-51
2023/11/24 07:07:18;;;;;;;8.00;1.50;;;;;;;3.53;87.25;98011.52;107316;281;95564;-53
2023/11/24 07:09:57;;;;;;;7.90;1.60;;;;;;;3.61;87.18;98020.31;107273;281;153820;-55
2023/11/24 07:12:42;;;;;;;10.70;2.20;;;;;;;3.70;87.03;98014.29;107365;281;119140;-58
2023/11/24 07:15:23;;;;;;;9.00;2.30;;;;;;;3.70;86.92;98014.69;107401;281;105299;-55
2023/11/24 07:18:05;;;;;;;11.20;2.90;;;;;;;3.70;86.80;98013.13;107180;281;153482;-55
2023/11/24 07:20:46;;;;;;;10.30;2.30;;;;;;;3.70;86.75;98010.21;107377;281;95831;-56
2023/11/24 07:23:29;;;;;;;6.70;1.80;;;;;;;3.72;86.70;98015.31;107186;281;155413;-56
2023/11/24 07:26:21;;;;;;;6.80;2.00;;;;;;;3.75;86.65;98015.73;107357;281;118492;-57
2023/11/24 07:29:02;;;;;;;6.40;1.90;;;;;;;3.80;86.43;98015.60;107264;281;155253;-58
2023/11/24 07:31:42;;;;;;;11.70;2.20;;;;;;;3.87;86.29;98007.30;107318;281;114129;-51
2023/11/24 07:34:22;;;;;;;9.60;2.10;;;;;;;3.91;86.05;98007.91;107205;281;153845;-57
2023/11/24 07:37:09;;;;;;;8.50;2.00;;;;;;;3.95;85.86;98007.47;107330;281;98174;-55
2023/11/24 07:39:54;;;;;;;5.80;1.60;;;;;;;3.95;85.80;98001.14;107217;281;154170;-51
2023/11/24 07:42:29;;;;;;;7.20;1.90;;;;;;;3.96;85.60;97995.81;107363;281;105317;-53
2023/11/24 07:45:10;;;;;;;7.60;1.70;;;;;;;4.02;85.45;97995.98;107305;281;113654;-54
2023/11/24 07:47:49;;;;;;;6.10;1.70;;;;;;;4.02;85.24;97997.16;107220;281;154158;-61
2023/11/24 07:50:31;;;;;;;7.40;2.10;;;;;;;4.12;85.20;97993.95;107394;281;96541;-57
2023/11/24 07:53:17;;;;;;;8.10;2.40;;;;;;;4.16;84.90;98002.73;107188;281;153260;-53
2023/11/24 07:55:55;;;;;;;10.30;2.10;;;;;;;4.14;84.67;98006.65;107400;281;105492;-52
2023/11/24 07:58:35;;;;;;;10.50;2.80;;;;;;;4.14;84.45;97999.70;107242;281;153822;-57
2023/11/24 08:01:15;;;;;;;10.30;2.60;;;;;;;4.09;84.33;98008.46;107369;281;94929;-53
2023/11/24 08:03:56;;;;;;;7.20;2.10;;;;;;;4.00;83.95;98006.94;107220;281;154353;-55
2023/11/24 08:06:38;;;;;;;6.50;2.00;;;;;;;3.95;84.03;98001.22;107407;281;118461;-55
2023/11/24 08:09:19;;;;;;;9.30;2.10;;;;;;;3.94;84.09;97997.70;107393;281;103997;-57
2023/11/24 08:12:04;;;;;;;6.90;2.10;;;;;;;4.01;83.92;97991.52;107202;281;153699;-55
2023/11/24 08:14:43;;;;;;;7.20;1.60;;;;;;;4.00;83.61;97985.33;107325;281;93031;-56
2023/11/24 08:17:18;;;;;;;9.30;2.60;;;;;;;3.99;83.62;97990.79;107266;281;153155;-56
2023/11/24 08:19:54;;;;;;;9.50;1.90;;;;;;;4.00;83.49;97985.49;107365;281;117585;-59
2023/11/24 08:22:37;;;;;;;13.60;2.00;;;;;;;4.01;83.34;97985.16;107211;281;154371;-56
2023/11/24 08:25:12;;;;;;;8.10;1.90;;;;;;;4.05;83.27;97987.09;107398;281;112968;-51
2023/11/24 08:27:49;;;;;;;8.70;2.10;;;;;;;4.15;83.25;97977.70;107268;281;155529;-56
2023/11/24 08:30:33;;;;;;;6.50;1.70;;;;;;;4.27;83.01;97974.52;107401;281;97974;-57
2023/11/24 08:33:16;;;;;;;6.30;1.90;;;;;;;4.38;82.84;97965.16;107338;281;119211;-56
2023/11/24 08:35:56;;;;;;;6.90;1.80;;;;;;;4.51;82.55;97969.36;107227;281;153177;-55
2023/11/24 08:38:37;;;;;;;6.00;2.10;;;;;;;4.69;82.35;97968.43;107393;281;112310;-55
2023/11/24 08:41:18;;;;;;;8.60;2.00;;;;;;;4.78;81.52;97955.41;107255;280;153573;-55
2023/11/24 08:43:54;;;;;;;11.40;2.30;;;;;;;4.89;81.72;97959.30;107392;280;97184;-54
2023/11/24 08:46:32;;;;;;;9.00;2.70;;;;;;;5.12;81.52;97953.79;107173;281;152977;-54
2023/11/24 08:49:10;;;;;;;7.60;2.60;;;;;;;5.38;81.17;97956.77;107344;281;103716;-51
2023/11/24 08:51:54;;;;;;;7.40;1.80;;;;;;;5.93;81.23;97953.30;107282;281;154039;-54
2023/11/24 08:54:29;;;;;;;9.40;2.30;;;;;;;6.30;80.34;97954.33;107265;281;95523;-55
2023/11/24 08:57:07;;;;;;;7.50;2.50;;;;;;;6.46;79.90;97960.66;107374;281;96926;-55
2023/11/24 08:59:49;;;;;;;6.60;1.90;;;;;;;6.52;79.18;97955.42;107251;280;153556;-55
2023/11/24 09:02:30;;;;;;;6.00;1.90;;;;;;;6.49;78.76;97956.58;107498;280;105577;-55
2023/11/24 09:05:09;;;;;;;8.50;2.10;;;;;;;6.63;78.28;97953.74;107210;278;153784;-55
2023/11/24 09:07:47;;;;;;;9.40;2.50;;;;;;;6.60;77.52;97957.41;107369;281;93824;-57
2023/11/24 09:10:28;;;;;;;6.90;1.70;;;;;;;6.34;76.98;97952.61;107255;280;154523;-58
2023/11/24 09:13:07;;;;;;;5.90;1.50;;;;;;;6.03;76.32;97951.38;107453;280;119137;-57
2023/11/24 09:15:49;;;;;;;7.30;2.10;;;;;;;5.77;76.44;97957.94;107426;280;105137;-58
2023/11/24 09:18:28;;;;;;;9.70;2.60;;;;;;;5.59;76.46;97952.17;107400;280;112891;-55
2023/11/24 09:21:08;;;;;;;5.70;1.80;;;;;;;5.46;76.13;97954.28;107451;280;93396;-53
2023/11/24 09:23:42;;;;;;;7.10;2.00;;;;;;;5.28;75.73;97951.27;107184;280;153541;-53
2023/11/24 09:26:21;;;;;;;8.90;2.10;;;;;;;5.21;75.59;97948.11;107247;281;120875;-53
2023/11/24 09:28:59;;;;;;;9.50;2.00;;;;;;;5.15;75.69;97956.98;107207;280;153451;-52
2023/11/24 09:31:45;;;;;;;9.20;2.10;;;;;;;5.14;76.14;97954.08;107449;280;113849;-60
2023/11/24 09:34:35;;;;;;;8.80;2.00;;;;;;;5.07;76.22;97955.97;107299;280;154789;-53
2023/11/24 09:37:15;;;;;;;6.80;1.60;;;;;;;4.97;75.95;97961.33;107298;281;97722;-52
2023/11/24 09:39:56;;;;;;;10.90;2.20;;;;;;;4.83;75.93;97958.64;107231;281;154193;-52
2023/11/24 09:42:41;;;;;;;8.30;2.20;;;;;;;4.73;75.79;97959.90;107372;280;105180;-53
2023/11/24 09:45:24;;;;;;;8.00;2.00;;;;;;;4.59;75.68;97950.38;107464;280;115349;-53
2023/11/24 09:48:01;;;;;;;5.90;1.90;;;;;;;4.55;75.91;97956.14;107133;280;154146;-52
2023/11/24 09:50:42;;;;;;;6.30;1.70;;;;;;;4.53;75.95;97954.71;107354;281;98873;-52
2023/11/24 09:53:33;;;;;;;8.40;2.00;;;;;;;4.53;75.73;97943.35;107274;280;154688;-53
2023/11/24 09:56:30;;;;;;;9.20;1.70;;;;;;;4.53;75.63;97945.25;107490;280;103332;-53
2023/11/24 09:59:08;;;;;;;9.10;1.90;;;;;;;4.62;75.65;97948.48;107146;281;154137;-55
2023/11/24 10:01:49;;;;;;;4.90;1.60;;;;;;;4.69;75.49;97946.50;107478;280;91372;-56
2023/11/24 10:04:29;;;;;;;6.80;1.90;;;;;;;4.79;75.63;97949.43;107309;280;154555;-58
2023/11/24 10:07:19;;;;;;;6.20;2.00;;;;;;;4.96;75.61;97940.80;107297;281;119407;-53
2023/11/24 10:10:01;;;;;;;6.40;1.80;;;;;;;5.16;75.00;97937.06;107214;281;153827;-54
2023/11/24 10:12:41;;;;;;;7.50;2.30;;;;;;;5.30;74.83;97940.06;107370;280;113362;-55
2023/11/24 10:15:20;;;;;;;10.70;3.70;;;;;;;5.51;74.99;97936.16;107452;280;93870;-55
2023/11/24 10:17:57;;;;;;;8.80;2.40;;;;;;;5.61;74.64;97939.60;107196;280;153389;-57
2023/11/24 10:20:52;;;;;;;9.10;2.10;;;;;;;5.54;74.31;97938.09;107364;281;119742;-57
2023/11/24 10:23:33;;;;;;;7.00;2.40;;;;;;;5.34;74.02;97935.21;107233;281;153758;-57
2023/11/24 10:26:16;;;;;;;8.90;2.30;;;;;;;5.19;74.11;97934.17;107394;280;114173;-58
2023/11/24 10:28:53;;;;;;;5.30;1.70;;;;;;;5.09;73.91;97921.25;107215;280;154617;-55
2023/11/24 10:31:30;;;;;;;6.20;2.00;;;;;;;5.02;73.76;97921.63;107339;281;97416;-56
2023/11/24 10:34:06;;;;;;;5.00;2.10;;;;;;;4.99;74.09;97916.86;107242;281;153604;-54
2023/11/24 10:36:45;;;;;;;7.30;2.00;;;;;;;5.00;74.09;97919.33;107398;280;104591;-53
2023/11/24 10:39:30;;;;;;;9.70;1.80;;;;;;;5.03;73.94;97914.29;107388;280;114887;-54
2023/11/24 10:42:09;;;;;;;5.40;1.80;;;;;;;5.06;73.97;97922.27;107186;280;154197;-54
2023/11/24 10:44:59;;;;;;;6.00;1.40;;;;;;;5.21;73.92;97929.04;107406;281;96872;-53
2023/11/24 10:47:48;;;;;;;7.30;1.80;;;;;;;5.45;74.45;97930.86;107251;281;153448;-58
2023/11/24 10:50:28;;;;;;;5.20;2.00;;;;;;;5.64;74.07;97925.45;107406;280;105041;-58
2023/11/24 10:53:11;;;;;;;6.80;1.80;;;;;;;5.68;73.47;97923.23;107200;280;154009;-52
2023/11/24 10:55:53;;;;;;;6.20;2.20;;;;;;;5.63;73.05;97929.92;107357;282;91761;-53
2023/11/24 10:58:32;;;;;;;5.50;1.90;;;;;;;5.58;72.75;97931.83;107234;281;153768;-54
2023/11/24 11:01:12;;;;;;;4.90;1.50;;;;;;;5.60;72.19;97927.79;107381;280;118768;-53
2023/11/24 11:04:07;;;;;;;4.20;1.80;;;;;;;5.59;72.02;97936.67;107399;280;153827;-52
2023/11/24 11:07:08;;;;;;;5.10;1.80;;;;;;;5.56;71.74;97941.20;107257;281;113578;-51
2023/11/24 11:09:51;;;;;;;6.90;1.80;;;;;;;5.62;70.96;97944.91;107363;281;92650;-53
2023/11/24 11:12:51;;;;;;;4.90;1.60;;;;;;;5.58;71.19;97944.80;107294;282;97411;-56
2023/11/24 11:15:38;;;;;;;8.50;2.20;;;;;;;5.51;70.67;97940.86;107370;282;120892;-51
2023/11/24 11:18:14;;;;;;;7.10;1.70;;;;;;;5.39;70.41;97941.23;107280;282;105786;-55
2023/11/24 11:20:54;;;;;;;7.70;1.90;;;;;;;5.25;69.90;97938.77;107395;281;113359;-54
2023/11/24 11:23:33;;;;;;;6.30;1.90;;;;;;;5.10;70.14;97936.70;107135;281;154169;-53
2023/11/24 11:26:35;;;;;;;5.30;1.70;;;;;;;4.98;70.21;97937.81;107376;281;96285;-53
2023/11/24 11:29:09;;;;;;;8.20;1.70;;;;;;;4.99;70.58;97932.38;107188;281;153646;-53
2023/11/24 11:31:50;;;;;;;6.60;1.80;;;;;;;4.95;70.49;97929.02;107326;282;105715;-52
2023/11/24 11:34:35;;;;;;;6.50;1.80;;;;;;;4.93;70.56;97924.47;107204;281;153779;-55
2023/11/24 11:37:12;;;;;;;5.50;2.00;;;;;;;4.88;70.55;97929.38;107371;280;93564;-57
2023/11/24 11:39:57;;;;;;;3.90;1.50;;;;;;;4.73;70.26;97929.05;107408;280;97905;-56
2023/11/24 11:42:58;;;;;;;;;;;;;;;4.58;70.57;97929.33;107293;282;120347;-53
2023/11/24 11:45:49;;;;;;;4.70;1.70;;;;;;;4.46;70.65;97926.29;107401;281;105946;-56
2023/11/24 11:48:35;;;;;;;6.60;1.80;;;;;;;4.45;70.88;97930.84;107301;281;114089;-53
2023/11/24 11:51:17;;;;;;;4.70;2.30;;;;;;;4.54;71.02;97931.52;107369;281;94128;-53
2023/11/24 11:53:57;;;;;;;6.60;2.20;;;;;;;4.58;71.11;97940.30;107275;281;153402;-54
2023/11/24 11:56:33;;;;;;;6.90;1.70;;;;;;;4.53;71.06;97936.91;107402;281;120066;-54
2023/11/24 11:59:11;;;;;;;3.80;1.50;;;;;;;4.45;70.95;97933.15;107215;281;154078;-55
2023/11/24 12:01:55;;;;;;;6.00;2.00;;;;;;;4.44;71.21;97939.00;107441;281;114141;-54
2023/11/24 12:04:36;;;;;;;6.00;1.60;;;;;;;4.48;71.34;97939.76;107218;281;153841;-53
2023/11/24 12:07:19;;;;;;;4.70;1.50;;;;;;;4.49;71.46;97949.75;107344;281;98080;-54
2023/11/24 12:09:58;;;;;;;8.40;3.20;;;;;;;4.47;71.30;97944.86;107266;281;154214;-54
2023/11/24 12:12:36;;;;;;;4.70;1.90;;;;;;;4.43;71.00;97952.11;107378;281;105698;-52
2023/11/24 12:15:17;;;;;;;8.30;1.90;;;;;;;4.44;71.00;97950.63;107374;281;114837;-52
2023/11/24 12:17:57;;;;;;;7.10;2.20;;;;;;;4.45;71.00;97956.09;107267;281;154548;-56
2023/11/24 12:20:36;;;;;;;11.80;2.40;;;;;;;4.39;70.94;97954.30;107394;281;97635;-56
2023/11/24 12:23:14;;;;;;;5.20;1.80;;;;;;;4.35;71.00;97958.05;107214;281;153687;-51
2023/11/24 12:25:48;;;;;;;4.70;1.80;;;;;;;4.35;70.99;97961.64;107406;281;104529;-53
2023/11/24 12:34:57;;;;;;;6.90;2.40;;;;;;;4.13;71.27;97963.82;107286;272;153630;-53
2023/11/24 12:37:38;;;;;;;4.60;2.10;;;;;;;4.06;71.33;97968.60;107286;282;120824;-53
2023/11/24 12:40:13;;;;;;;8.60;2.40;;;;;;;4.01;71.49;97967.86;107246;281;154655;-53
2023/11/24 12:42:53;;;;;;;8.10;1.90;;;;;;;3.98;71.32;97972.92;107375;281;114277;-53
2023/11/24 12:45:41;;;;;;;7.30;2.20;;;;;;;3.90;71.41;97973.24;107307;281;93152;-57
2023/11/24 12:48:37;;;;;;;6.20;2.30;;;;;;;3.79;71.29;97973.21;107328;281;98061;-56